sensor_id;sensor_type;location;lat;lon;timestamp;P1;durP1;ratioP1;P2;durP2;ratioP2
51866;SDS011;52862;52.504;13.480;2024-02-21T00:00:51;39.63;;;7.23;;
51866;SDS011;52862;52.504;13.480;2024-02-21T00:03:18;33.83;;;7.33;;
51866;SDS011;52862;52.504;13.480;2024-02-21T00:05:46;43.13;;;7.53;;
51866;SDS011;52862;52.504;13.480;2024-02-21T00:08:13;48.77;;;8.17;;
51866;SDS011;52862;52.504;13.480;2024-02-21T00:10:40;33.23;;;7.23;;
51866;SDS011;52862;52.504;13.480;2024-02-21T00:13:07;36.83;;;6.77;;
51866;SDS011;52862;52.504;13.480;2024-02-21T00:15:34;42.70;;;7.33;;
51866;SDS011;52862;52.504;13.480;2024-02-21T00:18:01;42.40;;;7.73;;
51866;SDS011;52862;52.504;13.480;2024-02-21T00:20:28;36.73;;;7.00;;
51866;SDS011;52862;52.504;13.480;2024-02-21T00:22:55;46.07;;;7.90;;
51866;SDS011;52862;52.504;13.480;2024-02-21T00:25:22;34.67;;;7.13;;
51866;SDS011;52862;52.504;13.480;2024-02-21T00:27:50;36.13;;;7.60;;
51866;SDS011;52862;52.504;13.480;2024-02-21T00:30:16;47.20;;;7.47;;
51866;SDS011;52862;52.504;13.480;2024-02-21T00:32:43;43.47;;;7.73;;
51866;SDS011;52862;52.504;13.480;2024-02-21T00:35:10;37.77;;;6.90;;
51866;SDS011;52862;52.504;13.480;2024-02-21T00:37:38;32.07;;;7.87;;
51866;SDS011;52862;52.504;13.480;2024-02-21T00:40:05;37.83;;;6.33;;
51866;SDS011;52862;52.504;13.480;2024-02-21T00:42:32;29.40;;;6.73;;
51866;SDS011;52862;52.504;13.480;2024-02-21T00:45:00;49.97;;;8.13;;
51866;SDS011;52862;52.504;13.480;2024-02-21T00:47:27;42.50;;;7.60;;
51866;SDS011;52862;52.504;13.480;2024-02-21T00:49:54;37.47;;;7.20;;
51866;SDS011;52862;52.504;13.480;2024-02-21T00:52:21;46.07;;;8.20;;
51866;SDS011;52862;52.504;13.480;2024-02-21T00:54:48;33.93;;;8.03;;
51866;SDS011;52862;52.504;13.480;2024-02-21T00:57:20;30.57;;;6.33;;
51866;SDS011;52862;52.504;13.480;2024-02-21T00:59:46;37.60;;;8.77;;
51866;SDS011;52862;52.504;13.480;2024-02-21T01:02:14;40.63;;;7.67;;
51866;SDS011;52862;52.504;13.480;2024-02-21T01:04:41;22.43;;;6.00;;
51866;SDS011;52862;52.504;13.480;2024-02-21T01:07:08;28.20;;;6.80;;
51866;SDS011;52862;52.504;13.480;2024-02-21T01:09:35;28.83;;;5.67;;
51866;SDS011;52862;52.504;13.480;2024-02-21T01:12:02;28.80;;;6.43;;
51866;SDS011;52862;52.504;13.480;2024-02-21T01:14:29;41.87;;;6.23;;
51866;SDS011;52862;52.504;13.480;2024-02-21T01:16:55;44.80;;;6.90;;
51866;SDS011;52862;52.504;13.480;2024-02-21T01:19:24;21.90;;;4.60;;
51866;SDS011;52862;52.504;13.480;2024-02-21T01:21:50;44.43;;;6.20;;
51866;SDS011;52862;52.504;13.480;2024-02-21T01:24:17;38.83;;;6.83;;
51866;SDS011;52862;52.504;13.480;2024-02-21T01:26:44;33.00;;;6.27;;
51866;SDS011;52862;52.504;13.480;2024-02-21T01:29:12;36.87;;;6.17;;
51866;SDS011;52862;52.504;13.480;2024-02-21T01:31:38;32.03;;;6.13;;
51866;SDS011;52862;52.504;13.480;2024-02-21T01:34:05;34.20;;;6.47;;
51866;SDS011;52862;52.504;13.480;2024-02-21T01:36:33;40.80;;;6.43;;
51866;SDS011;52862;52.504;13.480;2024-02-21T01:39:00;31.83;;;6.13;;
51866;SDS011;52862;52.504;13.480;2024-02-21T01:41:28;43.60;;;6.37;;
51866;SDS011;52862;52.504;13.480;2024-02-21T01:43:55;25.47;;;6.57;;
51866;SDS011;52862;52.504;13.480;2024-02-21T01:46:23;33.20;;;6.13;;
51866;SDS011;52862;52.504;13.480;2024-02-21T01:48:53;33.03;;;6.03;;
51866;SDS011;52862;52.504;13.480;2024-02-21T01:51:20;45.13;;;6.93;;
51866;SDS011;52862;52.504;13.480;2024-02-21T01:53:48;15.67;;;4.27;;
51866;SDS011;52862;52.504;13.480;2024-02-21T01:56:17;30.17;;;5.63;;
51866;SDS011;52862;52.504;13.480;2024-02-21T01:58:43;34.83;;;5.97;;
51866;SDS011;52862;52.504;13.480;2024-02-21T02:01:12;39.03;;;7.23;;
51866;SDS011;52862;52.504;13.480;2024-02-21T02:03:41;27.43;;;4.80;;
51866;SDS011;52862;52.504;13.480;2024-02-21T02:06:08;31.77;;;6.20;;
51866;SDS011;52862;52.504;13.480;2024-02-21T02:08:35;26.30;;;5.57;;
51866;SDS011;52862;52.504;13.480;2024-02-21T02:11:03;28.67;;;5.33;;
51866;SDS011;52862;52.504;13.480;2024-02-21T02:13:30;27.20;;;6.17;;
51866;SDS011;52862;52.504;13.480;2024-02-21T02:15:57;17.07;;;5.57;;
51866;SDS011;52862;52.504;13.480;2024-02-21T02:18:24;26.63;;;5.27;;
51866;SDS011;52862;52.504;13.480;2024-02-21T02:20:51;31.43;;;6.00;;
51866;SDS011;52862;52.504;13.480;2024-02-21T02:23:21;36.73;;;7.20;;
51866;SDS011;52862;52.504;13.480;2024-02-21T02:25:49;47.27;;;5.97;;
51866;SDS011;52862;52.504;13.480;2024-02-21T02:28:18;33.67;;;6.27;;
51866;SDS011;52862;52.504;13.480;2024-02-21T02:30:45;33.10;;;5.80;;
51866;SDS011;52862;52.504;13.480;2024-02-21T02:33:12;28.33;;;5.23;;
51866;SDS011;52862;52.504;13.480;2024-02-21T02:35:40;64.37;;;7.03;;
51866;SDS011;52862;52.504;13.480;2024-02-21T02:38:06;32.77;;;6.93;;
51866;SDS011;52862;52.504;13.480;2024-02-21T02:40:34;31.60;;;5.50;;
51866;SDS011;52862;52.504;13.480;2024-02-21T02:43:01;21.90;;;5.43;;
51866;SDS011;52862;52.504;13.480;2024-02-21T02:45:29;29.17;;;6.30;;
51866;SDS011;52862;52.504;13.480;2024-02-21T02:47:55;28.43;;;6.43;;
51866;SDS011;52862;52.504;13.480;2024-02-21T02:50:23;37.63;;;7.77;;
51866;SDS011;52862;52.504;13.480;2024-02-21T02:52:50;26.77;;;6.90;;
51866;SDS011;52862;52.504;13.480;2024-02-21T02:55:17;29.47;;;6.47;;
51866;SDS011;52862;52.504;13.480;2024-02-21T02:57:45;36.37;;;7.43;;
51866;SDS011;52862;52.504;13.480;2024-02-21T03:00:13;34.97;;;6.80;;
51866;SDS011;52862;52.504;13.480;2024-02-21T03:02:41;27.07;;;4.97;;
51866;SDS011;52862;52.504;13.480;2024-02-21T03:05:13;40.37;;;7.30;;
51866;SDS011;52862;52.504;13.480;2024-02-21T03:07:42;41.27;;;6.90;;
51866;SDS011;52862;52.504;13.480;2024-02-21T03:10:09;40.47;;;7.63;;
51866;SDS011;52862;52.504;13.480;2024-02-21T03:12:37;29.90;;;6.40;;
51866;SDS011;52862;52.504;13.480;2024-02-21T03:15:06;32.20;;;7.07;;
51866;SDS011;52862;52.504;13.480;2024-02-21T03:17:33;26.30;;;6.50;;
51866;SDS011;52862;52.504;13.480;2024-02-21T03:20:01;34.90;;;7.70;;
51866;SDS011;52862;52.504;13.480;2024-02-21T03:22:31;33.60;;;7.57;;
51866;SDS011;52862;52.504;13.480;2024-02-21T03:24:58;36.97;;;7.80;;
51866;SDS011;52862;52.504;13.480;2024-02-21T03:27:25;35.23;;;7.13;;
51866;SDS011;52862;52.504;13.480;2024-02-21T03:29:52;33.57;;;6.97;;
51866;SDS011;52862;52.504;13.480;2024-02-21T03:32:19;23.80;;;6.17;;
51866;SDS011;52862;52.504;13.480;2024-02-21T03:34:46;37.50;;;8.13;;
51866;SDS011;52862;52.504;13.480;2024-02-21T03:37:13;30.37;;;7.20;;
51866;SDS011;52862;52.504;13.480;2024-02-21T03:39:41;29.70;;;7.23;;
51866;SDS011;52862;52.504;13.480;2024-02-21T03:42:08;32.80;;;7.83;;
51866;SDS011;52862;52.504;13.480;2024-02-21T03:44:35;45.60;;;7.70;;
51866;SDS011;52862;52.504;13.480;2024-02-21T03:47:02;32.70;;;7.53;;
51866;SDS011;52862;52.504;13.480;2024-02-21T03:49:29;30.10;;;6.80;;
51866;SDS011;52862;52.504;13.480;2024-02-21T03:51:56;32.33;;;8.40;;
51866;SDS011;52862;52.504;13.480;2024-02-21T03:54:23;34.80;;;7.33;;
51866;SDS011;52862;52.504;13.480;2024-02-21T03:56:50;31.23;;;8.20;;
51866;SDS011;52862;52.504;13.480;2024-02-21T03:59:17;27.13;;;7.50;;
51866;SDS011;52862;52.504;13.480;2024-02-21T04:01:44;33.83;;;8.20;;
51866;SDS011;52862;52.504;13.480;2024-02-21T04:04:10;34.73;;;8.03;;
51866;SDS011;52862;52.504;13.480;2024-02-21T04:06:46;38.43;;;8.73;;
51866;SDS011;52862;52.504;13.480;2024-02-21T04:09:13;35.33;;;9.00;;
51866;SDS011;52862;52.504;13.480;2024-02-21T04:11:40;46.80;;;9.33;;
51866;SDS011;52862;52.504;13.480;2024-02-21T04:14:07;46.60;;;8.73;;
51866;SDS011;52862;52.504;13.480;2024-02-21T04:16:34;41.87;;;7.83;;
51866;SDS011;52862;52.504;13.480;2024-02-21T04:19:01;32.37;;;8.43;;
51866;SDS011;52862;52.504;13.480;2024-02-21T04:21:28;35.43;;;8.47;;
51866;SDS011;52862;52.504;13.480;2024-02-21T04:23:56;36.17;;;8.53;;
51866;SDS011;52862;52.504;13.480;2024-02-21T04:26:23;38.70;;;9.63;;
51866;SDS011;52862;52.504;13.480;2024-02-21T04:28:50;32.47;;;8.17;;
51866;SDS011;52862;52.504;13.480;2024-02-21T04:31:16;37.23;;;8.77;;
51866;SDS011;52862;52.504;13.480;2024-02-21T04:33:43;35.70;;;8.47;;
51866;SDS011;52862;52.504;13.480;2024-02-21T04:36:10;27.77;;;7.37;;
51866;SDS011;52862;52.504;13.480;2024-02-21T04:38:37;50.03;;;10.20;;
51866;SDS011;52862;52.504;13.480;2024-02-21T04:41:05;49.10;;;8.37;;
51866;SDS011;52862;52.504;13.480;2024-02-21T04:43:32;48.27;;;9.77;;
51866;SDS011;52862;52.504;13.480;2024-02-21T04:45:59;43.50;;;9.13;;
51866;SDS011;52862;52.504;13.480;2024-02-21T04:48:26;27.20;;;7.27;;
51866;SDS011;52862;52.504;13.480;2024-02-21T04:50:53;41.10;;;8.23;;
51866;SDS011;52862;52.504;13.480;2024-02-21T04:53:20;37.53;;;9.37;;
51866;SDS011;52862;52.504;13.480;2024-02-21T04:55:47;33.63;;;7.77;;
51866;SDS011;52862;52.504;13.480;2024-02-21T04:58:14;34.43;;;8.37;;
51866;SDS011;52862;52.504;13.480;2024-02-21T05:00:41;27.63;;;7.03;;
51866;SDS011;52862;52.504;13.480;2024-02-21T05:03:08;45.47;;;9.17;;
51866;SDS011;52862;52.504;13.480;2024-02-21T05:05:36;40.53;;;9.30;;
51866;SDS011;52862;52.504;13.480;2024-02-21T05:08:03;44.70;;;9.27;;
51866;SDS011;52862;52.504;13.480;2024-02-21T05:10:30;41.83;;;8.73;;
51866;SDS011;52862;52.504;13.480;2024-02-21T05:12:57;34.73;;;9.43;;
51866;SDS011;52862;52.504;13.480;2024-02-21T05:15:25;43.37;;;9.10;;
51866;SDS011;52862;52.504;13.480;2024-02-21T05:17:52;34.67;;;8.27;;
51866;SDS011;52862;52.504;13.480;2024-02-21T05:20:19;40.37;;;9.77;;
51866;SDS011;52862;52.504;13.480;2024-02-21T05:22:46;48.13;;;10.33;;
51866;SDS011;52862;52.504;13.480;2024-02-21T05:25:13;35.10;;;8.90;;
51866;SDS011;52862;52.504;13.480;2024-02-21T05:27:40;25.30;;;6.50;;
51866;SDS011;52862;52.504;13.480;2024-02-21T05:30:07;33.83;;;8.87;;
51866;SDS011;52862;52.504;13.480;2024-02-21T05:32:36;32.93;;;9.23;;
51866;SDS011;52862;52.504;13.480;2024-02-21T05:35:03;39.47;;;8.83;;
51866;SDS011;52862;52.504;13.480;2024-02-21T05:37:30;41.00;;;10.50;;
51866;SDS011;52862;52.504;13.480;2024-02-21T05:39:57;39.13;;;8.00;;
51866;SDS011;52862;52.504;13.480;2024-02-21T05:42:24;39.20;;;8.53;;
51866;SDS011;52862;52.504;13.480;2024-02-21T05:44:50;38.13;;;8.53;;
51866;SDS011;52862;52.504;13.480;2024-02-21T05:47:17;33.53;;;10.80;;
51866;SDS011;52862;52.504;13.480;2024-02-21T05:49:47;32.03;;;8.33;;
51866;SDS011;52862;52.504;13.480;2024-02-21T05:52:14;52.73;;;10.57;;
51866;SDS011;52862;52.504;13.480;2024-02-21T05:54:41;46.57;;;11.40;;
51866;SDS011;52862;52.504;13.480;2024-02-21T05:57:08;47.17;;;10.47;;
51866;SDS011;52862;52.504;13.480;2024-02-21T05:59:35;29.23;;;7.80;;
51866;SDS011;52862;52.504;13.480;2024-02-21T06:02:05;54.50;;;11.07;;
51866;SDS011;52862;52.504;13.480;2024-02-21T06:04:32;45.73;;;10.17;;
51866;SDS011;52862;52.504;13.480;2024-02-21T06:07:00;37.70;;;9.20;;
51866;SDS011;52862;52.504;13.480;2024-02-21T06:09:27;24.27;;;6.93;;
51866;SDS011;52862;52.504;13.480;2024-02-21T06:11:54;32.40;;;7.77;;
51866;SDS011;52862;52.504;13.480;2024-02-21T06:14:21;29.43;;;10.00;;
51866;SDS011;52862;52.504;13.480;2024-02-21T06:16:47;34.70;;;9.40;;
51866;SDS011;52862;52.504;13.480;2024-02-21T06:19:14;31.60;;;8.13;;
51866;SDS011;52862;52.504;13.480;2024-02-21T06:21:41;40.20;;;9.73;;
51866;SDS011;52862;52.504;13.480;2024-02-21T06:24:09;44.63;;;9.63;;
51866;SDS011;52862;52.504;13.480;2024-02-21T06:26:35;40.77;;;8.77;;
51866;SDS011;52862;52.504;13.480;2024-02-21T06:29:02;37.17;;;10.37;;
51866;SDS011;52862;52.504;13.480;2024-02-21T06:31:30;24.50;;;8.73;;
51866;SDS011;52862;52.504;13.480;2024-02-21T06:33:57;23.03;;;8.03;;
51866;SDS011;52862;52.504;13.480;2024-02-21T06:36:24;64.90;;;9.77;;
51866;SDS011;52862;52.504;13.480;2024-02-21T06:38:51;26.47;;;8.70;;
51866;SDS011;52862;52.504;13.480;2024-02-21T06:41:18;27.90;;;7.37;;
51866;SDS011;52862;52.504;13.480;2024-02-21T06:43:45;41.23;;;9.03;;
51866;SDS011;52862;52.504;13.480;2024-02-21T06:46:22;33.70;;;9.03;;
51866;SDS011;52862;52.504;13.480;2024-02-21T06:48:49;38.47;;;10.90;;
51866;SDS011;52862;52.504;13.480;2024-02-21T06:51:16;15.93;;;6.50;;
51866;SDS011;52862;52.504;13.480;2024-02-21T06:53:43;32.97;;;10.03;;
51866;SDS011;52862;52.504;13.480;2024-02-21T06:56:10;28.60;;;8.67;;
51866;SDS011;52862;52.504;13.480;2024-02-21T06:58:37;42.63;;;10.63;;
51866;SDS011;52862;52.504;13.480;2024-02-21T07:01:04;30.20;;;9.67;;
51866;SDS011;52862;52.504;13.480;2024-02-21T07:03:31;37.90;;;9.30;;
51866;SDS011;52862;52.504;13.480;2024-02-21T07:05:58;41.40;;;11.00;;
51866;SDS011;52862;52.504;13.480;2024-02-21T07:08:25;27.40;;;10.13;;
51866;SDS011;52862;52.504;13.480;2024-02-21T07:10:52;39.10;;;11.10;;
51866;SDS011;52862;52.504;13.480;2024-02-21T07:13:19;41.47;;;10.70;;
51866;SDS011;52862;52.504;13.480;2024-02-21T07:15:48;37.37;;;10.30;;
51866;SDS011;52862;52.504;13.480;2024-02-21T07:18:15;41.07;;;10.27;;
51866;SDS011;52862;52.504;13.480;2024-02-21T07:20:42;45.73;;;11.10;;
51866;SDS011;52862;52.504;13.480;2024-02-21T07:23:09;33.60;;;8.93;;
51866;SDS011;52862;52.504;13.480;2024-02-21T07:25:36;23.43;;;7.63;;
51866;SDS011;52862;52.504;13.480;2024-02-21T07:28:03;37.27;;;10.70;;
51866;SDS011;52862;52.504;13.480;2024-02-21T07:30:30;37.63;;;10.03;;
51866;SDS011;52862;52.504;13.480;2024-02-21T07:32:58;26.03;;;9.20;;
51866;SDS011;52862;52.504;13.480;2024-02-21T07:35:25;38.53;;;11.03;;
51866;SDS011;52862;52.504;13.480;2024-02-21T07:37:51;34.43;;;10.13;;
51866;SDS011;52862;52.504;13.480;2024-02-21T07:40:18;31.87;;;8.27;;
51866;SDS011;52862;52.504;13.480;2024-02-21T07:42:45;37.07;;;10.50;;
51866;SDS011;52862;52.504;13.480;2024-02-21T07:45:17;36.10;;;9.47;;
51866;SDS011;52862;52.504;13.480;2024-02-21T07:47:44;36.27;;;7.77;;
51866;SDS011;52862;52.504;13.480;2024-02-21T07:50:11;38.37;;;8.73;;
51866;SDS011;52862;52.504;13.480;2024-02-21T07:52:38;34.63;;;9.43;;
51866;SDS011;52862;52.504;13.480;2024-02-21T07:55:05;32.57;;;9.60;;
51866;SDS011;52862;52.504;13.480;2024-02-21T07:57:33;25.33;;;7.93;;
51866;SDS011;52862;52.504;13.480;2024-02-21T07:59:59;33.30;;;7.80;;
51866;SDS011;52862;52.504;13.480;2024-02-21T08:02:26;31.10;;;8.60;;
51866;SDS011;52862;52.504;13.480;2024-02-21T08:04:53;34.87;;;9.13;;
51866;SDS011;52862;52.504;13.480;2024-02-21T08:07:21;31.20;;;6.97;;
51866;SDS011;52862;52.504;13.480;2024-02-21T08:09:49;40.67;;;8.50;;
51866;SDS011;52862;52.504;13.480;2024-02-21T08:12:16;33.43;;;8.40;;
51866;SDS011;52862;52.504;13.480;2024-02-21T08:14:42;33.80;;;7.83;;
51866;SDS011;52862;52.504;13.480;2024-02-21T08:17:09;35.80;;;9.47;;
51866;SDS011;52862;52.504;13.480;2024-02-21T08:19:36;28.27;;;8.80;;
51866;SDS011;52862;52.504;13.480;2024-02-21T08:22:03;30.63;;;9.03;;
51866;SDS011;52862;52.504;13.480;2024-02-21T08:24:30;33.87;;;10.03;;
51866;SDS011;52862;52.504;13.480;2024-02-21T08:26:57;28.43;;;9.60;;
51866;SDS011;52862;52.504;13.480;2024-02-21T08:29:24;28.23;;;9.77;;
51866;SDS011;52862;52.504;13.480;2024-02-21T08:31:52;36.73;;;8.63;;
51866;SDS011;52862;52.504;13.480;2024-02-21T08:34:19;30.07;;;7.80;;
51866;SDS011;52862;52.504;13.480;2024-02-21T08:36:46;12.53;;;3.97;;
51866;SDS011;52862;52.504;13.480;2024-02-21T08:39:13;33.73;;;9.20;;
51866;SDS011;52862;52.504;13.480;2024-02-21T08:41:43;27.77;;;9.70;;
51866;SDS011;52862;52.504;13.480;2024-02-21T08:44:22;26.07;;;8.33;;
51866;SDS011;52862;52.504;13.480;2024-02-21T08:46:51;41.77;;;9.10;;
51866;SDS011;52862;52.504;13.480;2024-02-21T08:49:18;33.43;;;7.67;;
51866;SDS011;52862;52.504;13.480;2024-02-21T08:51:45;28.97;;;9.87;;
51866;SDS011;52862;52.504;13.480;2024-02-21T08:54:12;34.23;;;9.67;;
51866;SDS011;52862;52.504;13.480;2024-02-21T08:56:39;26.57;;;9.90;;
51866;SDS011;52862;52.504;13.480;2024-02-21T08:59:06;40.57;;;11.13;;
51866;SDS011;52862;52.504;13.480;2024-02-21T09:01:33;26.53;;;9.33;;
51866;SDS011;52862;52.504;13.480;2024-02-21T09:04:00;26.87;;;10.17;;
51866;SDS011;52862;52.504;13.480;2024-02-21T09:06:28;36.67;;;10.13;;
51866;SDS011;52862;52.504;13.480;2024-02-21T09:08:56;22.97;;;6.17;;
51866;SDS011;52862;52.504;13.480;2024-02-21T09:11:23;41.33;;;10.17;;
51866;SDS011;52862;52.504;13.480;2024-02-21T09:13:50;29.73;;;10.57;;
51866;SDS011;52862;52.504;13.480;2024-02-21T09:16:17;18.10;;;8.00;;
51866;SDS011;52862;52.504;13.480;2024-02-21T09:18:44;30.40;;;9.87;;
51866;SDS011;52862;52.504;13.480;2024-02-21T09:21:12;28.00;;;7.83;;
51866;SDS011;52862;52.504;13.480;2024-02-21T09:23:39;37.13;;;10.70;;
51866;SDS011;52862;52.504;13.480;2024-02-21T09:26:05;43.27;;;12.77;;
51866;SDS011;52862;52.504;13.480;2024-02-21T09:28:33;31.07;;;9.30;;
51866;SDS011;52862;52.504;13.480;2024-02-21T09:31:05;28.83;;;9.33;;
51866;SDS011;52862;52.504;13.480;2024-02-21T09:33:33;34.13;;;10.57;;
51866;SDS011;52862;52.504;13.480;2024-02-21T09:36:00;35.70;;;10.77;;
51866;SDS011;52862;52.504;13.480;2024-02-21T09:38:27;38.47;;;10.77;;
51866;SDS011;52862;52.504;13.480;2024-02-21T09:40:55;31.30;;;10.90;;
51866;SDS011;52862;52.504;13.480;2024-02-21T09:43:26;25.90;;;9.37;;
51866;SDS011;52862;52.504;13.480;2024-02-21T09:45:54;33.87;;;11.37;;
51866;SDS011;52862;52.504;13.480;2024-02-21T09:48:26;22.17;;;7.80;;
51866;SDS011;52862;52.504;13.480;2024-02-21T09:51:05;31.47;;;11.37;;
51866;SDS011;52862;52.504;13.480;2024-02-21T09:53:33;37.73;;;10.70;;
51866;SDS011;52862;52.504;13.480;2024-02-21T09:56:03;32.07;;;11.50;;
51866;SDS011;52862;52.504;13.480;2024-02-21T09:58:35;30.50;;;10.10;;
51866;SDS011;52862;52.504;13.480;2024-02-21T10:01:02;38.83;;;11.87;;
51866;SDS011;52862;52.504;13.480;2024-02-21T10:03:47;39.90;;;9.40;;
51866;SDS011;52862;52.504;13.480;2024-02-21T10:06:14;36.53;;;10.70;;
51866;SDS011;52862;52.504;13.480;2024-02-21T10:08:40;26.77;;;9.20;;
51866;SDS011;52862;52.504;13.480;2024-02-21T10:11:07;25.50;;;9.30;;
51866;SDS011;52862;52.504;13.480;2024-02-21T10:13:34;31.80;;;9.80;;
51866;SDS011;52862;52.504;13.480;2024-02-21T10:16:04;24.23;;;8.87;;
51866;SDS011;52862;52.504;13.480;2024-02-21T10:18:32;46.27;;;10.50;;
51866;SDS011;52862;52.504;13.480;2024-02-21T10:21:00;27.33;;;10.33;;
51866;SDS011;52862;52.504;13.480;2024-02-21T10:23:29;32.73;;;10.07;;
51866;SDS011;52862;52.504;13.480;2024-02-21T10:26:07;28.00;;;10.40;;
51866;SDS011;52862;52.504;13.480;2024-02-21T10:28:34;32.83;;;10.43;;
51866;SDS011;52862;52.504;13.480;2024-02-21T10:31:01;28.93;;;9.87;;
51866;SDS011;52862;52.504;13.480;2024-02-21T10:33:28;35.40;;;10.67;;
51866;SDS011;52862;52.504;13.480;2024-02-21T10:36:06;42.07;;;10.27;;
51866;SDS011;52862;52.504;13.480;2024-02-21T10:38:35;35.27;;;9.60;;
51866;SDS011;52862;52.504;13.480;2024-02-21T10:41:05;30.90;;;8.37;;
51866;SDS011;52862;52.504;13.480;2024-02-21T10:43:35;22.67;;;8.80;;
51866;SDS011;52862;52.504;13.480;2024-02-21T10:46:06;23.07;;;7.57;;
51866;SDS011;52862;52.504;13.480;2024-02-21T10:48:38;29.20;;;9.57;;
51866;SDS011;52862;52.504;13.480;2024-02-21T10:51:13;26.50;;;7.10;;
51866;SDS011;52862;52.504;13.480;2024-02-21T10:53:44;31.97;;;6.77;;
51866;SDS011;52862;52.504;13.480;2024-02-21T10:56:18;24.93;;;8.47;;
51866;SDS011;52862;52.504;13.480;2024-02-21T10:58:51;22.00;;;7.50;;
51866;SDS011;52862;52.504;13.480;2024-02-21T11:01:19;25.63;;;8.57;;
51866;SDS011;52862;52.504;13.480;2024-02-21T11:03:47;34.27;;;8.50;;
51866;SDS011;52862;52.504;13.480;2024-02-21T11:06:16;31.80;;;8.33;;
51866;SDS011;52862;52.504;13.480;2024-02-21T11:08:45;26.93;;;8.93;;
51866;SDS011;52862;52.504;13.480;2024-02-21T11:11:12;27.83;;;8.73;;
51866;SDS011;52862;52.504;13.480;2024-02-21T11:14:06;26.03;;;9.70;;
51866;SDS011;52862;52.504;13.480;2024-02-21T11:16:37;29.13;;;9.03;;
51866;SDS011;52862;52.504;13.480;2024-02-21T11:19:06;21.87;;;7.73;;
51866;SDS011;52862;52.504;13.480;2024-02-21T11:21:34;27.70;;;8.87;;
51866;SDS011;52862;52.504;13.480;2024-02-21T11:24:01;29.37;;;7.97;;
51866;SDS011;52862;52.504;13.480;2024-02-21T11:26:29;15.73;;;6.57;;
51866;SDS011;52862;52.504;13.480;2024-02-21T11:28:57;19.87;;;7.87;;
51866;SDS011;52862;52.504;13.480;2024-02-21T11:31:25;18.23;;;6.47;;
51866;SDS011;52862;52.504;13.480;2024-02-21T11:33:53;26.30;;;9.07;;
51866;SDS011;52862;52.504;13.480;2024-02-21T11:36:23;26.60;;;8.73;;
51866;SDS011;52862;52.504;13.480;2024-02-21T11:38:52;20.80;;;8.67;;
51866;SDS011;52862;52.504;13.480;2024-02-21T11:41:19;36.23;;;7.33;;
51866;SDS011;52862;52.504;13.480;2024-02-21T11:43:46;18.93;;;8.13;;
51866;SDS011;52862;52.504;13.480;2024-02-21T11:46:14;16.73;;;7.00;;
51866;SDS011;52862;52.504;13.480;2024-02-21T11:48:41;16.60;;;6.67;;
51866;SDS011;52862;52.504;13.480;2024-02-21T11:51:10;13.87;;;5.77;;
51866;SDS011;52862;52.504;13.480;2024-02-21T11:53:36;17.83;;;6.20;;
51866;SDS011;52862;52.504;13.480;2024-02-21T11:56:16;21.50;;;6.53;;
51866;SDS011;52862;52.504;13.480;2024-02-21T11:58:43;22.50;;;6.57;;
51866;SDS011;52862;52.504;13.480;2024-02-21T12:01:11;21.77;;;6.60;;
51866;SDS011;52862;52.504;13.480;2024-02-21T12:03:38;10.90;;;4.60;;
51866;SDS011;52862;52.504;13.480;2024-02-21T12:06:07;11.83;;;4.73;;
51866;SDS011;52862;52.504;13.480;2024-02-21T12:08:43;13.87;;;7.70;;
51866;SDS011;52862;52.504;13.480;2024-02-21T12:11:21;18.70;;;5.70;;
51866;SDS011;52862;52.504;13.480;2024-02-21T12:13:58;9.17;;;4.10;;
51866;SDS011;52862;52.504;13.480;2024-02-21T12:16:26;16.73;;;5.73;;
51866;SDS011;52862;52.504;13.480;2024-02-21T12:18:54;21.97;;;6.03;;
51866;SDS011;52862;52.504;13.480;2024-02-21T12:21:23;12.93;;;6.00;;
51866;SDS011;52862;52.504;13.480;2024-02-21T12:23:50;15.30;;;4.97;;
51866;SDS011;52862;52.504;13.480;2024-02-21T12:26:17;20.23;;;5.63;;
51866;SDS011;52862;52.504;13.480;2024-02-21T12:28:46;16.00;;;5.40;;
51866;SDS011;52862;52.504;13.480;2024-02-21T12:31:13;14.77;;;5.67;;
51866;SDS011;52862;52.504;13.480;2024-02-21T12:33:41;19.23;;;5.53;;
51866;SDS011;52862;52.504;13.480;2024-02-21T12:36:09;13.37;;;4.53;;
51866;SDS011;52862;52.504;13.480;2024-02-21T12:38:36;19.80;;;5.97;;
51866;SDS011;52862;52.504;13.480;2024-02-21T12:41:03;19.83;;;4.63;;
51866;SDS011;52862;52.504;13.480;2024-02-21T12:43:31;13.87;;;4.77;;
51866;SDS011;52862;52.504;13.480;2024-02-21T12:45:58;11.00;;;4.57;;
51866;SDS011;52862;52.504;13.480;2024-02-21T12:48:25;8.87;;;4.20;;
51866;SDS011;52862;52.504;13.480;2024-02-21T12:50:52;16.80;;;4.50;;
51866;SDS011;52862;52.504;13.480;2024-02-21T12:53:19;19.57;;;4.20;;
51866;SDS011;52862;52.504;13.480;2024-02-21T12:55:58;8.73;;;3.50;;
51866;SDS011;52862;52.504;13.480;2024-02-21T12:58:25;18.77;;;5.13;;
51866;SDS011;52862;52.504;13.480;2024-02-21T13:00:51;8.93;;;3.80;;
51866;SDS011;52862;52.504;13.480;2024-02-21T13:03:19;10.93;;;4.50;;
51866;SDS011;52862;52.504;13.480;2024-02-21T13:05:47;11.20;;;3.90;;
51866;SDS011;52862;52.504;13.480;2024-02-21T13:08:14;9.83;;;3.70;;
51866;SDS011;52862;52.504;13.480;2024-02-21T13:10:41;14.33;;;3.90;;
51866;SDS011;52862;52.504;13.480;2024-02-21T13:13:07;11.63;;;4.10;;
51866;SDS011;52862;52.504;13.480;2024-02-21T13:15:34;13.57;;;4.93;;
51866;SDS011;52862;52.504;13.480;2024-02-21T13:18:03;11.97;;;4.27;;
51866;SDS011;52862;52.504;13.480;2024-02-21T13:20:31;11.03;;;4.03;;
51866;SDS011;52862;52.504;13.480;2024-02-21T13:22:58;16.73;;;4.20;;
51866;SDS011;52862;52.504;13.480;2024-02-21T13:25:24;11.33;;;4.23;;
51866;SDS011;52862;52.504;13.480;2024-02-21T13:27:51;19.17;;;4.60;;
51866;SDS011;52862;52.504;13.480;2024-02-21T13:30:21;19.77;;;4.60;;
51866;SDS011;52862;52.504;13.480;2024-02-21T13:32:48;19.67;;;5.60;;
51866;SDS011;52862;52.504;13.480;2024-02-21T13:35:15;12.53;;;4.47;;
51866;SDS011;52862;52.504;13.480;2024-02-21T13:37:43;21.33;;;4.77;;
51866;SDS011;52862;52.504;13.480;2024-02-21T13:40:10;24.13;;;5.50;;
51866;SDS011;52862;52.504;13.480;2024-02-21T13:42:37;20.37;;;5.70;;
51866;SDS011;52862;52.504;13.480;2024-02-21T13:45:04;24.17;;;5.90;;
51866;SDS011;52862;52.504;13.480;2024-02-21T13:47:32;17.90;;;4.23;;
51866;SDS011;52862;52.504;13.480;2024-02-21T13:50:00;18.10;;;5.90;;
51866;SDS011;52862;52.504;13.480;2024-02-21T13:52:26;14.13;;;5.00;;
51866;SDS011;52862;52.504;13.480;2024-02-21T13:54:54;16.27;;;5.13;;
51866;SDS011;52862;52.504;13.480;2024-02-21T13:57:21;35.10;;;5.73;;
51866;SDS011;52862;52.504;13.480;2024-02-21T13:59:48;17.23;;;5.90;;
51866;SDS011;52862;52.504;13.480;2024-02-21T14:02:16;22.63;;;5.40;;
51866;SDS011;52862;52.504;13.480;2024-02-21T14:04:43;25.50;;;6.03;;
51866;SDS011;52862;52.504;13.480;2024-02-21T14:07:10;16.43;;;4.67;;
51866;SDS011;52862;52.504;13.480;2024-02-21T14:09:36;23.50;;;5.60;;
51866;SDS011;52862;52.504;13.480;2024-02-21T14:12:04;21.10;;;5.40;;
51866;SDS011;52862;52.504;13.480;2024-02-21T14:14:34;14.03;;;4.97;;
51866;SDS011;52862;52.504;13.480;2024-02-21T14:17:04;19.40;;;6.17;;
51866;SDS011;52862;52.504;13.480;2024-02-21T14:19:31;18.70;;;5.53;;
51866;SDS011;52862;52.504;13.480;2024-02-21T14:21:58;17.20;;;5.37;;
51866;SDS011;52862;52.504;13.480;2024-02-21T14:24:25;12.70;;;4.90;;